createdAt,value
2018-03-04T00:00:43.492Z,16.35
2018-03-04T00:03:11.769Z,18.95
2018-03-04T00:05:40.041Z,22.15
2018-03-04T00:08:08.330Z,17.33
2018-03-04T00:10:35.845Z,18.62
2018-03-04T00:13:03.378Z,18.65
2018-03-04T00:15:30.889Z,23.15
2018-03-04T00:17:59.174Z,16.90
2018-03-04T00:20:27.444Z,16.80
2018-03-04T00:22:55.717Z,21.75
2018-03-04T00:25:23.254Z,19.85
2018-03-04T00:27:50.764Z,16.35
2018-03-04T00:30:18.282Z,17.40
2018-03-04T00:32:45.786Z,19.17
2018-03-04T00:35:13.305Z,23.08
2018-03-04T00:37:40.807Z,20.27
2018-03-04T00:40:08.343Z,20.33
2018-03-04T00:42:35.861Z,19.37
2018-03-04T00:45:03.368Z,22.50
2018-03-04T00:47:31.656Z,25.52
2018-03-04T00:49:59.147Z,24.65
2018-03-04T00:52:26.676Z,22.50
2018-03-04T00:54:54.192Z,29.98
2018-03-04T00:57:21.729Z,24.40
2018-03-04T00:59:49.237Z,25.62
2018-03-04T01:02:16.761Z,28.42
2018-03-04T01:04:44.268Z,22.48
2018-03-04T01:07:11.763Z,26.52
2018-03-04T01:09:39.285Z,27.33
2018-03-04T01:12:07.560Z,26.42
2018-03-04T01:14:35.085Z,24.50
2018-03-04T01:17:02.592Z,23.58
2018-03-04T01:19:30.122Z,23.27
2018-03-04T01:21:58.397Z,25.25
2018-03-04T01:24:26.675Z,25.88
2018-03-04T01:26:54.173Z,25.48
2018-03-04T01:29:21.669Z,27.50
2018-03-04T01:31:49.191Z,23.25
2018-03-04T01:34:16.713Z,20.00
2018-03-04T01:36:44.237Z,23.98
2018-03-04T01:39:11.734Z,25.17
2018-03-04T01:41:40.028Z,28.08
2018-03-04T01:44:07.537Z,23.52
2018-03-04T01:46:35.044Z,21.80
2018-03-04T01:49:03.333Z,20.98
2018-03-04T01:51:42.546Z,18.52
2018-03-04T01:54:10.836Z,21.80
2018-03-04T01:56:39.104Z,26.48
2018-03-04T01:59:07.400Z,22.40
2018-03-04T02:01:34.909Z,25.40
2018-03-04T02:04:02.417Z,24.08
2018-03-04T02:06:29.945Z,31.55
2018-03-04T02:08:57.447Z,29.52
2018-03-04T02:11:24.971Z,25.42
2018-03-04T02:13:53.248Z,25.12
2018-03-04T02:16:21.544Z,24.98
2018-03-04T02:18:49.064Z,26.08
2018-03-04T02:21:16.573Z,31.77
2018-03-04T02:23:44.092Z,32.40
2018-03-04T02:26:11.610Z,27.05
2018-03-04T02:28:39.892Z,32.55
2018-03-04T02:31:08.160Z,31.25
2018-03-04T02:33:35.672Z,28.27
2018-03-04T02:36:03.973Z,23.33
2018-03-04T02:38:32.257Z,33.78
2018-03-04T02:40:59.794Z,27.77
2018-03-04T02:43:28.074Z,30.60
2018-03-04T02:45:56.360Z,32.67
2018-03-04T02:48:24.624Z,29.95
2018-03-04T02:50:52.136Z,32.22
2018-03-04T02:53:19.646Z,34.42
2018-03-04T02:55:47.912Z,24.20
2018-03-04T02:58:15.436Z,24.92
2018-03-04T03:00:42.936Z,26.00
2018-03-04T03:03:10.467Z,24.90
2018-03-04T03:05:37.973Z,23.15
2018-03-04T03:08:06.268Z,27.92
2018-03-04T03:10:33.771Z,29.83
2018-03-04T03:13:01.279Z,21.05
2018-03-04T03:15:28.808Z,28.42
2018-03-04T03:17:57.096Z,22.48
2018-03-04T03:20:25.392Z,21.95
2018-03-04T03:22:52.898Z,17.58
2018-03-04T03:25:20.430Z,21.27
2018-03-04T03:27:47.933Z,23.58
2018-03-04T03:30:15.433Z,17.40
2018-03-04T03:32:42.956Z,16.42
2018-03-04T03:35:10.448Z,14.38
2018-03-04T03:37:37.976Z,17.95
2018-03-04T03:40:05.464Z,13.25
2018-03-04T03:42:32.977Z,20.05
2018-03-04T03:45:00.475Z,15.88
2018-03-04T03:47:27.974Z,14.52
2018-03-04T03:49:55.496Z,12.77
2018-03-04T03:52:23.780Z,15.60
2018-03-04T03:54:51.304Z,13.32
2018-03-04T03:57:18.800Z,14.55
2018-03-04T03:59:47.082Z,17.62
2018-03-04T04:02:14.572Z,12.00
2018-03-04T04:04:42.065Z,12.88
2018-03-04T04:07:09.580Z,14.98
2018-03-04T04:09:37.084Z,13.15
2018-03-04T04:12:04.623Z,14.10
2018-03-04T04:14:32.124Z,13.15
2018-03-04T04:17:00.412Z,14.45
2018-03-04T04:19:27.915Z,13.95
2018-03-04T04:21:55.408Z,13.70
2018-03-04T04:24:22.919Z,13.52
2018-03-04T04:26:50.413Z,13.00
2018-03-04T04:29:17.926Z,13.62
2018-03-04T04:31:45.439Z,12.00
2018-03-04T04:34:13.815Z,13.02
2018-03-04T04:36:41.303Z,14.95
2018-03-04T04:39:09.570Z,13.48
2018-03-04T04:41:37.845Z,13.25
2018-03-04T04:44:06.126Z,14.43
2018-03-04T04:46:34.410Z,11.12
2018-03-04T04:49:02.681Z,11.60
2018-03-04T04:51:30.955Z,13.35
2018-03-04T04:53:59.209Z,12.27
2018-03-04T04:56:26.705Z,11.10
2018-03-04T04:58:54.218Z,16.05
2018-03-04T05:01:21.707Z,10.68
2018-03-04T05:03:50.973Z,17.65
2018-03-04T05:06:18.511Z,15.32
2018-03-04T05:08:46.023Z,16.37
2018-03-04T05:11:14.274Z,13.95
2018-03-04T05:13:41.764Z,16.40
2018-03-04T05:16:10.051Z,13.38
2018-03-04T05:18:37.543Z,15.80
2018-03-04T05:21:05.065Z,13.75
2018-03-04T05:23:32.555Z,12.90
2018-03-04T05:26:00.074Z,16.40
2018-03-04T05:28:28.326Z,17.98
2018-03-04T05:30:55.810Z,11.57
2018-03-04T05:33:24.087Z,11.63
2018-03-04T05:35:52.344Z,15.73
2018-03-04T05:38:19.856Z,14.68
2018-03-04T05:40:47.345Z,11.73
2018-03-04T05:43:14.862Z,10.50
2018-03-04T05:45:42.354Z,11.52
2018-03-04T05:48:09.860Z,16.25
2018-03-04T05:50:37.381Z,10.88
2018-03-04T05:53:04.887Z,11.07
2018-03-04T05:55:33.172Z,13.77
2018-03-04T05:58:01.441Z,12.07
2018-03-04T06:00:29.723Z,19.52
2018-03-04T06:02:58.101Z,12.80
2018-03-04T06:05:26.368Z,16.00
2018-03-04T06:07:54.655Z,13.73
2018-03-04T06:10:22.916Z,11.20
2018-03-04T06:12:51.219Z,15.70
2018-03-04T06:15:18.729Z,17.02
2018-03-04T06:17:46.243Z,13.15
2018-03-04T06:20:13.748Z,14.85
2018-03-04T06:22:41.245Z,11.35
2018-03-04T06:25:09.531Z,16.00
2018-03-04T06:27:37.793Z,10.40
2018-03-04T06:30:06.064Z,7.95
2018-03-04T06:32:33.553Z,10.25
2018-03-04T06:35:01.066Z,9.85
2018-03-04T06:37:28.564Z,10.82
2018-03-04T06:39:56.076Z,11.00
2018-03-04T06:42:23.606Z,11.52
2018-03-04T06:44:51.100Z,9.80
2018-03-04T06:47:18.692Z,11.07
2018-03-04T06:49:46.951Z,9.25
2018-03-04T06:52:14.483Z,10.75
2018-03-04T06:54:41.990Z,9.93
2018-03-04T06:57:10.254Z,10.43
2018-03-04T06:59:37.773Z,8.65
2018-03-04T07:02:05.265Z,9.00
2018-03-04T07:04:32.951Z,10.18
2018-03-04T07:07:01.248Z,10.48
2018-03-04T07:09:28.773Z,10.02
2018-03-04T07:11:56.268Z,8.40
2018-03-04T07:14:23.769Z,11.82
2018-03-04T07:16:51.297Z,10.25
2018-03-04T07:19:18.856Z,8.00
2018-03-04T07:21:46.383Z,10.90
2018-03-04T07:24:14.642Z,10.38
2018-03-04T07:26:42.159Z,12.07
2018-03-04T07:29:10.341Z,9.40
2018-03-04T07:31:37.849Z,13.43
2018-03-04T07:34:06.136Z,13.05
2018-03-04T07:36:34.396Z,11.77
2018-03-04T07:39:01.902Z,8.40
2018-03-04T07:41:29.392Z,13.70
2018-03-04T07:43:56.905Z,10.82
2018-03-04T07:46:24.404Z,14.80
2018-03-04T07:48:51.952Z,10.45
2018-03-04T07:51:19.480Z,12.88
2018-03-04T07:53:46.984Z,10.23
2018-03-04T07:56:14.502Z,9.65
2018-03-04T07:58:42.042Z,11.25
2018-03-04T08:01:09.565Z,8.57
2018-03-04T08:03:37.060Z,9.65
2018-03-04T08:06:05.316Z,8.38
2018-03-04T08:08:32.845Z,12.48
2018-03-04T08:11:00.351Z,12.73
2018-03-04T08:13:28.652Z,5.95
2018-03-04T08:15:56.168Z,11.63
2018-03-04T08:18:23.689Z,9.10
2018-03-04T08:20:51.225Z,8.18
2018-03-04T08:23:19.489Z,10.05
2018-03-04T08:25:47.782Z,8.05
2018-03-04T08:28:27.813Z,8.38
2018-03-04T08:30:55.320Z,7.53
2018-03-04T08:33:22.913Z,11.77
2018-03-04T08:35:50.425Z,7.78
2018-03-04T08:38:17.934Z,5.68
2018-03-04T08:40:45.465Z,7.10
2018-03-04T08:43:12.948Z,6.35
2018-03-04T08:45:40.442Z,7.68
2018-03-04T08:48:08.729Z,4.32
2018-03-04T08:50:36.253Z,9.13
2018-03-04T08:53:03.777Z,6.37
2018-03-04T08:55:31.301Z,8.35
2018-03-04T08:57:59.602Z,6.37
2018-03-04T09:00:27.116Z,8.18
2018-03-04T09:02:54.631Z,7.12
2018-03-04T09:05:22.166Z,6.60
2018-03-04T09:07:49.706Z,6.50
2018-03-04T09:10:18.006Z,6.65
2018-03-04T09:12:45.500Z,6.25
2018-03-04T09:15:13.025Z,7.62
2018-03-04T09:17:40.557Z,12.15
2018-03-04T09:20:08.058Z,6.40
2018-03-04T09:22:35.584Z,13.48
2018-03-04T09:25:03.900Z,5.45
2018-03-04T09:27:31.437Z,6.00
2018-03-04T09:29:58.960Z,6.97
2018-03-04T09:32:26.484Z,7.90
2018-03-04T09:34:54.017Z,5.85
2018-03-04T09:37:21.532Z,6.37
2018-03-04T09:39:49.076Z,5.95
2018-03-04T09:42:16.591Z,4.12
2018-03-04T09:44:44.865Z,3.67
2018-03-04T09:47:13.148Z,4.78
2018-03-04T09:49:41.417Z,9.80
2018-03-04T09:52:08.982Z,14.20
2018-03-04T09:54:37.309Z,26.33
2018-03-04T09:57:04.835Z,25.20
2018-03-04T09:59:33.123Z,21.58
2018-03-04T10:02:00.646Z,23.75
2018-03-04T10:04:28.949Z,27.15
2018-03-04T10:06:56.452Z,18.12
2018-03-04T10:09:23.989Z,18.00
2018-03-04T10:11:51.507Z,17.70
2018-03-04T10:14:19.797Z,19.30
2018-03-04T10:16:47.358Z,21.42
2018-03-04T10:19:15.634Z,18.67
2018-03-04T10:21:43.150Z,21.27
2018-03-04T10:24:10.697Z,21.95
2018-03-04T10:26:38.518Z,19.45
2018-03-04T10:29:07.240Z,16.90
2018-03-04T10:31:34.747Z,19.65
2018-03-04T10:34:03.056Z,18.62
2018-03-04T10:36:30.592Z,20.27
2018-03-04T10:38:59.726Z,18.87
2018-03-04T10:41:27.255Z,15.65
2018-03-04T10:43:55.547Z,15.13
2018-03-04T10:46:23.073Z,12.07
2018-03-04T10:48:50.590Z,18.35
2018-03-04T10:51:18.130Z,12.55
2018-03-04T10:53:45.661Z,16.90
2018-03-04T10:56:29.145Z,14.20
2018-03-04T10:58:56.743Z,9.45
2018-03-04T11:01:28.083Z,14.25
2018-03-04T11:03:57.663Z,12.95
2018-03-04T11:06:25.324Z,10.75
2018-03-04T11:08:52.847Z,14.02
2018-03-04T11:11:21.111Z,12.25
2018-03-04T11:13:48.642Z,17.67
2018-03-04T11:16:16.153Z,12.93
2018-03-04T11:18:43.685Z,19.20
2018-03-04T11:21:11.185Z,14.32
2018-03-04T11:23:38.680Z,12.40
2018-03-04T11:26:06.211Z,12.75
2018-03-04T11:28:33.814Z,14.77
2018-03-04T11:31:01.313Z,13.02
2018-03-04T11:33:28.817Z,15.32
2018-03-04T11:35:56.339Z,13.80
2018-03-04T11:38:23.851Z,8.38
2018-03-04T11:40:51.357Z,15.65
2018-03-04T11:43:18.879Z,14.60
2018-03-04T11:45:46.396Z,14.87
2018-03-04T11:48:13.922Z,12.52
2018-03-04T11:50:41.425Z,13.88
2018-03-04T11:53:08.956Z,12.20
2018-03-04T11:55:36.469Z,10.25
2018-03-04T11:58:03.976Z,11.07
2018-03-04T12:00:31.566Z,8.23
2018-03-04T12:02:59.068Z,12.80
2018-03-04T12:05:27.382Z,11.52
2018-03-04T12:07:54.881Z,11.70
2018-03-04T12:10:22.404Z,10.48
2018-03-04T12:12:49.917Z,10.85
2018-03-04T12:15:17.455Z,8.35
2018-03-04T12:17:44.960Z,14.68
2018-03-04T12:20:12.473Z,11.68
2018-03-04T12:22:40.006Z,11.65
2018-03-04T12:25:07.533Z,11.12
2018-03-04T12:27:35.145Z,10.15
2018-03-04T12:30:02.652Z,6.90
2018-03-04T12:32:30.930Z,10.40
2018-03-04T12:34:58.455Z,6.00
2018-03-04T12:37:25.959Z,11.85
2018-03-04T12:39:54.435Z,13.40
2018-03-04T12:42:21.954Z,7.90
2018-03-04T12:44:49.489Z,8.15
2018-03-04T12:47:16.995Z,9.38
2018-03-04T12:49:45.275Z,5.37
2018-03-04T12:52:12.798Z,6.57
2018-03-04T12:54:40.305Z,5.12
2018-03-04T12:57:08.602Z,5.10
2018-03-04T12:59:36.144Z,5.07
2018-03-04T13:02:04.677Z,9.25
2018-03-04T13:04:32.213Z,10.57
2018-03-04T13:06:59.724Z,8.18
2018-03-04T13:09:27.272Z,10.55
2018-03-04T13:11:54.801Z,7.30
2018-03-04T13:14:22.337Z,5.10
2018-03-04T13:16:49.849Z,5.87
2018-03-04T13:19:17.385Z,5.65
2018-03-04T13:21:44.966Z,5.82
2018-03-04T13:24:12.536Z,9.68
2018-03-04T13:26:42.067Z,8.35
2018-03-04T13:29:11.356Z,3.07
2018-03-04T13:31:38.886Z,6.30
2018-03-04T13:34:06.404Z,6.75
2018-03-04T13:36:33.938Z,11.40
2018-03-04T13:39:01.472Z,9.10
2018-03-04T13:41:28.997Z,7.60
2018-03-04T13:43:56.530Z,5.40
2018-03-04T13:46:24.818Z,10.20
2018-03-04T13:48:52.354Z,5.37
2018-03-04T13:51:20.642Z,6.55
2018-03-04T13:53:48.940Z,4.33
2018-03-04T13:56:16.513Z,5.50
2018-03-04T13:58:44.020Z,6.28
2018-03-04T14:01:11.552Z,6.95
2018-03-04T14:03:39.054Z,7.03
2018-03-04T14:06:07.352Z,6.65
2018-03-04T14:08:34.870Z,7.25
2018-03-04T14:11:02.412Z,7.70
2018-03-04T14:13:29.920Z,9.50
2018-03-04T14:15:58.194Z,8.55
2018-03-04T14:18:26.494Z,5.50
2018-03-04T14:20:54.008Z,7.32
2018-03-04T14:23:21.549Z,7.10
2018-03-04T14:25:49.060Z,6.47
2018-03-04T14:28:16.598Z,10.38
2018-03-04T14:30:44.096Z,6.28
2018-03-04T14:33:11.611Z,8.27
2018-03-04T14:35:39.137Z,7.25
2018-03-04T14:38:06.657Z,9.27
2018-03-04T14:40:34.184Z,6.50
2018-03-04T14:43:01.688Z,10.00
2018-03-04T14:45:29.204Z,8.80
2018-03-04T14:47:57.504Z,6.18
2018-03-04T14:50:26.604Z,10.20
2018-03-04T14:52:56.085Z,7.00
2018-03-04T14:55:23.565Z,6.72
2018-03-04T14:57:51.103Z,9.00
2018-03-04T15:00:18.601Z,6.40
2018-03-04T15:02:46.135Z,7.00
2018-03-04T15:05:14.408Z,9.05
2018-03-04T15:07:42.696Z,8.02
2018-03-04T15:10:11.021Z,5.70
2018-03-04T15:12:38.528Z,11.50
2018-03-04T15:15:06.856Z,7.25
2018-03-04T15:17:34.382Z,4.40
2018-03-04T15:20:01.911Z,8.57
2018-03-04T15:22:29.461Z,5.97
2018-03-04T15:24:56.971Z,6.45
2018-03-04T15:27:24.492Z,13.05
2018-03-04T15:29:52.001Z,6.03
2018-03-04T15:32:19.525Z,6.65
2018-03-04T15:34:47.804Z,6.25
2018-03-04T15:37:16.108Z,5.43
2018-03-04T15:39:43.621Z,3.45
2018-03-04T15:42:11.136Z,7.62
2018-03-04T15:44:38.662Z,6.43
2018-03-04T15:47:06.932Z,7.20
2018-03-04T15:49:35.241Z,5.85
2018-03-04T15:52:02.745Z,9.10
2018-03-04T15:54:30.282Z,7.90
2018-03-04T15:56:57.821Z,4.40
2018-03-04T15:59:25.337Z,6.18
2018-03-04T16:01:52.873Z,9.13
2018-03-04T16:04:20.392Z,6.32
2018-03-04T16:06:48.429Z,9.15
2018-03-04T16:09:15.946Z,9.82
2018-03-04T16:11:43.513Z,12.98
2018-03-04T16:14:11.036Z,5.18
2018-03-04T16:16:39.314Z,7.03
2018-03-04T16:19:07.668Z,8.48
2018-03-04T16:21:35.163Z,7.93
2018-03-04T16:24:05.699Z,10.90
2018-03-04T16:26:34.196Z,8.30
2018-03-04T16:29:01.736Z,11.52
2018-03-04T16:31:29.270Z,10.70
2018-03-04T16:33:57.556Z,11.80
2018-03-04T16:36:25.861Z,7.93
2018-03-04T16:38:53.390Z,8.80
2018-03-04T16:41:20.937Z,14.00
2018-03-04T16:43:48.447Z,6.05
2018-03-04T16:46:15.972Z,5.82
2018-03-04T16:48:44.252Z,7.70
2018-03-04T16:51:12.544Z,6.85
2018-03-04T16:53:40.071Z,6.60
2018-03-04T16:56:07.565Z,4.35
2018-03-04T16:58:35.097Z,6.28
2018-03-04T17:01:02.603Z,10.35
2018-03-04T17:03:30.157Z,14.10
2018-03-04T17:05:57.658Z,8.05
2018-03-04T17:08:25.182Z,9.63
2018-03-04T17:10:52.725Z,8.38
2018-03-04T17:13:20.211Z,9.13
2018-03-04T17:15:47.727Z,6.62
2018-03-04T17:18:15.993Z,9.82
2018-03-04T17:20:43.515Z,9.10
2018-03-04T17:23:11.034Z,10.88
2018-03-04T17:25:39.309Z,10.13
2018-03-04T17:28:06.831Z,13.77
2018-03-04T17:30:34.333Z,9.23
2018-03-04T17:33:01.866Z,7.62
2018-03-04T17:35:29.374Z,10.27
2018-03-04T17:37:56.968Z,12.13
2018-03-04T17:40:25.387Z,13.93
2018-03-04T17:42:52.898Z,10.93
2018-03-04T17:45:20.452Z,12.20
2018-03-04T17:47:47.980Z,19.80
2018-03-04T17:50:15.520Z,18.50
2018-03-04T17:52:43.792Z,18.73
2018-03-04T17:55:12.097Z,20.55
2018-03-04T17:57:39.626Z,15.13
2018-03-04T18:00:07.135Z,17.65
2018-03-04T18:02:34.692Z,15.85
2018-03-04T18:05:02.253Z,18.37
2018-03-04T18:07:30.507Z,19.58
2018-03-04T18:09:57.998Z,20.37
2018-03-04T18:12:25.532Z,24.60
2018-03-04T18:14:53.030Z,19.70
2018-03-04T18:17:20.571Z,15.23
2018-03-04T18:19:49.004Z,12.10
2018-03-04T18:22:16.706Z,20.75
2018-03-04T18:27:37.260Z,21.55
2018-03-04T18:30:05.780Z,20.98
2018-03-04T18:32:34.050Z,22.40
2018-03-04T18:35:02.328Z,24.55
2018-03-04T18:37:30.619Z,20.83
2018-03-04T18:39:58.899Z,19.87
2018-03-04T18:42:26.423Z,19.27
2018-03-04T18:44:53.929Z,19.60
2018-03-04T18:47:21.470Z,22.35
2018-03-04T18:49:48.969Z,19.52
2018-03-04T18:52:16.488Z,21.75
2018-03-04T18:54:44.782Z,18.00
2018-03-04T18:57:12.279Z,20.17
2018-03-04T18:59:39.811Z,22.90
2018-03-04T19:02:07.326Z,27.23
2018-03-04T19:04:35.645Z,26.55
2018-03-04T19:07:03.149Z,23.67
2018-03-04T19:09:30.648Z,19.02
2018-03-04T19:11:58.189Z,23.30
2018-03-04T19:14:26.464Z,18.42
2018-03-04T19:16:53.992Z,21.50
2018-03-04T19:19:21.488Z,23.42
2018-03-04T19:21:49.779Z,17.15
2018-03-04T19:24:17.288Z,20.08
2018-03-04T19:26:44.812Z,25.37
2018-03-04T19:29:12.350Z,16.70
2018-03-04T19:31:40.620Z,17.80
2018-03-04T19:34:08.187Z,21.00
2018-03-04T19:36:36.477Z,19.25
2018-03-04T19:39:04.768Z,24.33
2018-03-04T19:41:32.271Z,23.80
2018-03-04T19:43:59.783Z,18.23
2018-03-04T19:46:27.328Z,21.65
2018-03-04T19:48:54.841Z,21.30
2018-03-04T19:51:22.376Z,21.35
2018-03-04T19:53:49.936Z,17.37
2018-03-04T19:56:17.464Z,20.17
2018-03-04T19:58:44.989Z,20.23
2018-03-04T20:01:12.505Z,22.90
2018-03-04T20:03:40.036Z,18.85
2018-03-04T20:06:08.309Z,27.80
2018-03-04T20:08:36.605Z,20.98
2018-03-04T20:11:04.886Z,19.90
2018-03-04T20:13:32.531Z,18.73
2018-03-04T20:16:01.984Z,20.77
2018-03-04T20:18:29.516Z,17.02
2018-03-04T20:20:57.036Z,24.77
2018-03-04T20:23:24.557Z,29.63
2018-03-04T20:25:52.116Z,34.00
2018-03-04T20:28:19.728Z,28.00
2018-03-04T20:30:47.262Z,33.33
2018-03-04T20:33:14.770Z,32.47
2018-03-04T20:35:42.492Z,24.30
2018-03-04T20:38:10.042Z,26.10
2018-03-04T20:40:37.536Z,20.70
2018-03-04T20:43:05.866Z,21.08
2018-03-04T20:45:33.405Z,28.90
2018-03-04T20:48:00.940Z,18.33
2018-03-04T20:50:29.228Z,24.10
2018-03-04T20:52:57.992Z,18.95
2018-03-04T20:55:25.524Z,23.83
2018-03-04T20:57:53.030Z,21.37
2018-03-04T21:00:20.642Z,20.65
2018-03-04T21:02:48.154Z,21.65
2018-03-04T21:05:15.700Z,23.67
2018-03-04T21:07:43.222Z,21.12
2018-03-04T21:10:10.728Z,18.12
2018-03-04T21:12:39.173Z,24.85
2018-03-04T21:15:06.659Z,19.77
2018-03-04T21:17:34.192Z,20.52
2018-03-04T21:20:01.731Z,20.90
2018-03-04T21:22:29.248Z,17.02
2018-03-04T21:24:57.539Z,17.15
2018-03-04T21:27:25.052Z,22.73
2018-03-04T21:29:52.585Z,23.10
2018-03-04T21:32:20.102Z,19.87
2018-03-04T21:34:48.383Z,21.75
2018-03-04T21:37:16.662Z,20.95
2018-03-04T21:39:44.943Z,19.48
2018-03-04T21:42:12.447Z,14.20
2018-03-04T21:44:40.038Z,14.95
2018-03-04T21:47:08.350Z,17.75
2018-03-04T21:49:35.852Z,9.60
2018-03-04T21:52:03.373Z,10.15
2018-03-04T21:54:30.878Z,10.80
2018-03-04T21:56:58.407Z,10.80
2018-03-04T21:59:26.006Z,8.25
2018-03-04T22:01:53.506Z,6.95
2018-03-04T22:04:21.883Z,8.88
2018-03-04T22:06:50.142Z,5.75
2018-03-04T22:09:17.673Z,5.87
2018-03-04T22:11:45.184Z,9.15
2018-03-04T22:14:12.700Z,7.15
2018-03-04T22:16:40.203Z,9.38
2018-03-04T22:19:07.710Z,9.10
2018-03-04T22:21:35.248Z,7.55
2018-03-04T22:24:03.743Z,6.28
2018-03-04T22:26:31.260Z,6.72
2018-03-04T22:28:58.764Z,4.53
2018-03-04T22:31:26.282Z,5.05
2018-03-04T22:33:53.797Z,5.68
2018-03-04T22:36:21.381Z,5.72
2018-03-04T22:38:48.984Z,4.87
2018-03-04T22:41:16.497Z,5.10
2018-03-04T22:43:44.069Z,6.93
2018-03-04T22:46:12.564Z,5.62
2018-03-04T22:48:40.151Z,6.60
2018-03-04T22:51:07.664Z,5.75
2018-03-04T22:53:35.944Z,3.50
2018-03-04T22:56:04.245Z,5.28
2018-03-04T22:58:31.751Z,4.45
2018-03-04T23:00:59.275Z,2.83
2018-03-04T23:03:26.787Z,2.97
2018-03-04T23:05:54.304Z,2.75
2018-03-04T23:08:21.846Z,5.47
2018-03-04T23:10:49.368Z,3.53
2018-03-04T23:13:16.897Z,3.78
2018-03-04T23:15:44.412Z,3.50
2018-03-04T23:18:12.701Z,5.60
2018-03-04T23:20:40.208Z,3.65
2018-03-04T23:23:07.740Z,5.37
2018-03-04T23:25:35.248Z,3.80
2018-03-04T23:28:02.753Z,4.50
2018-03-04T23:30:30.282Z,4.10
2018-03-04T23:32:58.569Z,2.92
2018-03-04T23:35:26.103Z,4.12
2018-03-04T23:37:54.383Z,3.40
2018-03-04T23:40:22.685Z,3.30
2018-03-04T23:42:50.239Z,3.58
2018-03-04T23:45:17.705Z,3.12
2018-03-04T23:47:45.233Z,2.62
2018-03-04T23:50:12.733Z,2.90
2018-03-04T23:52:40.266Z,2.50
2018-03-04T23:55:07.769Z,4.32
2018-03-04T23:57:35.303Z,5.25
